Kazan << — UUPD — position and weather

sailwx.info

Track history (hours):
 
Tides and Currents Weather Stations Pressure Air Temp Water Temp Dewpoint Dewpoint Depression Visibility Wind Speed Wind Dir Waves Ship Positions

Kazan <<

Last reported at 2018-May-02 06:58 UTC. Time now 2018-Jul-18 14:42 UTC.
Position N 44°41' E 027°55'.
Warning: this ship's position is months out of date.

Length 210 m; draft 0.2 m.

Type: Ship. MMSI: 272041800.

Date/timePositionNaut miles runAvg speedWind from/ knotsBaromVisibWave heightAir tempDewpointWater temp
2018-May-02 06:58N 44°41' E 027°55'2 5.3
2018-May-02 06:30N 44°40' E 027°59'14 1.2
2018-May-01 18:53N 44°28' E 028°06'39 3.6
2018-May-01 07:54N 44°08' E 027°18'93 3.4
2018-Apr-30 04:36N 43°41' E 025°15'2 5.8
2018-Apr-30 04:14N 43°42' E 025°12'2 5.8
2018-Apr-30 03:51N 43°42' E 025°09'2 5.4
2018-Apr-30 03:30N 43°41' E 025°07'62 2.8
2018-Apr-29 04:50N 43°48' E 023°41'3 6.3
2018-Apr-29 04:17N 43°48' E 023°37'2 6.8
2018-Apr-29 03:59N 43°48' E 023°34'3 6.3
2018-Apr-29 03:30N 43°50' E 023°30'2 0.2
2018-Apr-28 17:23N 43°51' E 023°28'2 5.9
2018-Apr-28 16:59N 43°51' E 023°25'3 6.1
2018-Apr-28 16:30N 43°51' E 023°21'3 6.0
2018-Apr-28 16:00N 43°51' E 023°17'3 5.9
2018-Apr-28 15:30N 43°50' E 023°13'3 6.3
2018-Apr-28 14:57N 43°48' E 023°08'3 6.0
2018-Apr-28 14:28N 43°48' E 023°04'3 6.2
2018-Apr-28 13:58N 43°48' E 023°00'3 6.0
2018-Apr-28 13:31N 43°49' E 022°56'3 6.3
2018-Apr-28 13:01N 43°50' E 022°52'3 5.9
2018-Apr-28 12:30N 43°53' E 022°50'3 6.1
2018-Apr-28 12:00N 43°56' E 022°52'3 6.3
2018-Apr-28 11:29N 43°59' E 022°53'3 6.2
2018-Apr-28 11:00N 44°00' E 022°56'3 6.2
2018-Apr-28 10:30N 44°01' E 023°01'3 6.3
2018-Apr-28 10:00N 44°04' E 023°03'3 5.6
2018-Apr-28 09:30N 44°06' E 023°00'3 6.2
2018-Apr-28 09:00N 44°06' E 022°56'3 6.0
2018-Apr-28 08:30N 44°08' E 022°53'3 6.2
2018-Apr-28 08:00N 44°09' E 022°49'3 6.0
2018-Apr-28 07:30N 44°11' E 022°46'3 6.2
2018-Apr-28 07:00N 44°12' E 022°42'3 5.5
2018-Apr-28 06:30N 44°15' E 022°41'2 4.1
2018-Apr-28 06:00N 44°17' E 022°41'0 0.1
2018-Apr-28 05:30N 44°17' E 022°41'2 3.7
2018-Apr-28 05:00N 44°17' E 022°38'3 6.2
2018-Apr-28 04:30N 44°18' E 022°34'0 0.4
2018-Apr-28 04:00N 44°18' E 022°34'0 1.0
2018-Apr-28 03:30N 44°19' E 022°33'2 3.8
2018-Apr-28 03:01N 44°20' E 022°32'0 0.0
2018-Apr-28 02:30N 44°20' E 022°32'0 0.0
2018-Apr-28 02:00N 44°20' E 022°32'0 0.0
2018-Apr-28 01:30N 44°20' E 022°32'0 0.0
2018-Apr-28 01:00N 44°20' E 022°32'0 0.0
2018-Apr-28 00:31N 44°20' E 022°32'0 0.0
2018-Apr-28 00:00N 44°20' E 022°32'0 0.0
2018-Apr-27 23:30N 44°20' E 022°32'0 0.0
2018-Apr-27 23:00N 44°20' E 022°32'0 0.0
2018-Apr-27 22:30N 44°20' E 022°32'0 0.0
2018-Apr-27 22:00N 44°20' E 022°32'2 3.6
2018-Apr-27 21:30N 44°22' E 022°31'3 6.6
2018-Apr-27 21:00N 44°25' E 022°30'3 6.3
2018-Apr-27 20:31N 44°28' E 022°28'2 4.5
2018-Apr-27 20:01N 44°28' E 022°30'3 5.6
2018-Apr-27 19:30N 44°30' E 022°34'3 6.3
2018-Apr-27 19:01N 44°33' E 022°35'3 6.6
2018-Apr-27 18:31N 44°32' E 022°40'3 6.7
2018-Apr-27 18:00N 44°32' E 022°44'3 6.0
2018-Apr-27 17:30N 44°35' E 022°44'3 6.8
2018-Apr-27 17:01N 44°37' E 022°41'1 2.7
2018-Apr-27 16:31N 44°37' E 022°39'0 0.0
2018-Apr-27 15:59N 44°37' E 022°39'0 0.0
2018-Apr-27 15:31N 44°37' E 022°39'0 0.0
2018-Apr-27 15:01N 44°37' E 022°39'0 0.0
2018-Apr-27 14:31N 44°37' E 022°39'0 0.0
2018-Apr-27 13:58N 44°37' E 022°39'0 0.0
2018-Apr-27 13:31N 44°37' E 022°39'0 0.0
2018-Apr-27 13:01N 44°37' E 022°39'0 0.0
2018-Apr-27 12:30N 44°37' E 022°39'0 0.0
2018-Apr-27 12:00N 44°37' E 022°39'0 0.0
2018-Apr-27 11:30N 44°37' E 022°39'0 0.0
2018-Apr-27 11:01N 44°37' E 022°39'0 0.0
2018-Apr-27 10:31N 44°37' E 022°39'0 0.0
2018-Apr-27 10:01N 44°37' E 022°39'0 0.0
2018-Apr-27 09:31N 44°37' E 022°39'0 0.0
2018-Apr-27 09:01N 44°37' E 022°39'0 0.0
2018-Apr-27 08:30N 44°37' E 022°39'0 0.0
2018-Apr-27 08:01N 44°37' E 022°39'0 0.0
2018-Apr-27 07:31N 44°37' E 022°39'0 0.0
2018-Apr-27 07:01N 44°37' E 022°39'0 0.0
2018-Apr-27 06:31N 44°37' E 022°39'0 0.0
2018-Apr-27 06:01N 44°37' E 022°39'0 0.0
2018-Apr-27 05:31N 44°37' E 022°39'0 0.0
2018-Apr-27 05:00N 44°37' E 022°39'0 0.0
2018-Apr-27 04:30N 44°37' E 022°39'0 0.0
2018-Apr-27 04:01N 44°37' E 022°39'0 0.0
2018-Apr-27 03:31N 44°37' E 022°39'0 0.0
2018-Apr-27 03:01N 44°37' E 022°39'0 0.0
2018-Apr-27 02:30N 44°37' E 022°39'0 0.1
2018-Apr-27 02:01N 44°37' E 022°39'0 0.1
2018-Apr-27 01:31N 44°37' E 022°39'0 0.0
2018-Apr-27 01:01N 44°37' E 022°39'0 0.0
2018-Apr-27 00:31N 44°37' E 022°39'0 0.0
2018-Apr-27 00:01N 44°37' E 022°39'0 0.0
2018-Apr-26 23:31N 44°37' E 022°39'0 0.0
2018-Apr-26 23:01N 44°37' E 022°39'0 0.0
2018-Apr-26 22:31N 44°37' E 022°39'0 0.0
2018-Apr-26 22:01N 44°37' E 022°39'0 0.0
2018-Apr-26 21:30N 44°37' E 022°39'0 0.0
2018-Apr-26 21:01N 44°37' E 022°39'0 0.0
2018-Apr-26 20:31N 44°37' E 022°39'0 0.0
2018-Apr-26 20:01N 44°37' E 022°39'0 0.0
2018-Apr-26 19:31N 44°37' E 022°39'0 0.1
2018-Apr-26 19:01N 44°37' E 022°39'1 1.3
2018-Apr-26 18:31N 44°37' E 022°40'1 2.0
2018-Apr-26 18:01N 44°37' E 022°41'1 2.1
2018-Apr-26 17:30N 44°36' E 022°42'1 2.9
2018-Apr-26 17:01N 44°35' E 022°43'1 2.7
2018-Apr-26 16:30N 44°34' E 022°45'1 2.8
2018-Apr-26 16:00N 44°33' E 022°46'1 2.1
2018-Apr-26 15:30N 44°32' E 022°45'1 1.8
2018-Apr-26 15:00N 44°32' E 022°44'1 2.1
2018-Apr-26 14:30N 44°31' E 022°43'1 2.5
2018-Apr-26 14:00N 44°31' E 022°41'1 3.0
2018-Apr-26 13:30N 44°32' E 022°39'1 3.0
2018-Apr-26 13:00N 44°33' E 022°38'1 2.7
2018-Apr-26 12:30N 44°33' E 022°36'1 2.7
2018-Apr-26 12:00N 44°32' E 022°34'1 3.0
2018-Apr-26 11:30N 44°31' E 022°34'2 3.3
2018-Apr-26 11:00N 44°29' E 022°33'2 3.2
2018-Apr-26 10:30N 44°28' E 022°31'2 3.0
2018-Apr-26 10:00N 44°29' E 022°29'1 2.6
2018-Apr-26 09:30N 44°28' E 022°27'1 2.8
2018-Apr-26 09:00N 44°27' E 022°28'2 3.5
2018-Apr-26 08:30N 44°26' E 022°29'2 3.2
2018-Apr-26 08:00N 44°24' E 022°30'2 3.1
2018-Apr-26 07:30N 44°23' E 022°30'2 3.3
2018-Apr-26 07:00N 44°21' E 022°31'2 3.1
2018-Apr-26 06:30N 44°20' E 022°32'1 2.8
2018-Apr-26 06:00N 44°19' E 022°34'0 0.1
2018-Apr-26 05:30N 44°19' E 022°34'1 1.6
2018-Apr-26 05:00N 44°19' E 022°35'1 2.8
2018-Apr-26 04:30N 44°18' E 022°36'1 2.5
2018-Apr-26 04:00N 44°18' E 022°38'1 2.7
2018-Apr-26 03:30N 44°17' E 022°40'1 2.5
2018-Apr-26 03:00N 44°16' E 022°41'1 2.4
2018-Apr-26 02:30N 44°15' E 022°41'1 2.2
2018-Apr-26 02:00N 44°14' E 022°41'1 1.8
2018-Apr-26 01:30N 44°13' E 022°41'1 1.5
2018-Apr-26 01:01N 44°12' E 022°41'1 2.2
2018-Apr-26 00:30N 44°12' E 022°43'1 2.1
2018-Apr-26 00:00N 44°12' E 022°44'1 2.1
2018-Apr-25 23:30N 44°11' E 022°45'1 2.2
2018-Apr-25 23:00N 44°11' E 022°47'1 2.7
2018-Apr-25 22:30N 44°10' E 022°48'1 2.8
2018-Apr-25 22:01N 44°09' E 022°50'1 2.9
2018-Apr-25 21:31N 44°08' E 022°51'1 2.4
2018-Apr-25 21:00N 44°08' E 022°53'1 2.9
2018-Apr-25 20:30N 44°07' E 022°54'1 2.6
2018-Apr-25 20:00N 44°06' E 022°56'1 2.5
2018-Apr-25 19:31N 44°06' E 022°58'1 2.7
2018-Apr-25 19:00N 44°06' E 022°59'1 2.9
2018-Apr-25 18:30N 44°05' E 023°01'1 2.8
2018-Apr-25 18:00N 44°04' E 023°03'1 2.5
2018-Apr-25 17:31N 44°03' E 023°03'1 2.4
2018-Apr-25 17:00N 44°02' E 023°02'1 2.6
2018-Apr-25 16:30N 44°01' E 023°01'1 1.7
2018-Apr-25 16:01N 44°01' E 022°60'0 0.2
2018-Apr-25 15:30N 44°01' E 022°60'1 2.8
2018-Apr-25 15:00N 44°00' E 022°58'1 2.6
2018-Apr-25 14:30N 44°00' E 022°56'1 1.3
2018-Apr-25 14:00N 43°60' E 022°55'0 0.8
2018-Apr-25 13:30N 43°60' E 022°54'1 2.7
2018-Apr-25 13:00N 43°59' E 022°53'1 2.3
2018-Apr-25 12:31N 43°58' E 022°52'1 2.8
2018-Apr-25 12:00N 43°57' E 022°52'2 3.1
2018-Apr-25 11:30N 43°55' E 022°51'1 2.7
2018-Apr-25 11:00N 43°54' E 022°51'1 2.7
2018-Apr-25 10:30N 43°53' E 022°50'1 2.8
2018-Apr-25 10:01N 43°51' E 022°51'1 2.6
2018-Apr-25 09:30N 43°50' E 022°52'1 2.6
2018-Apr-25 08:57N 43°50' E 022°54'1 2.7
2018-Apr-25 08:30N 43°50' E 022°56'1 2.9
2018-Apr-25 08:00N 43°49' E 022°58'1 2.9
2018-Apr-25 07:29N 43°49' E 022°59'1 3.0
2018-Apr-25 07:00N 43°48' E 023°01'1 2.6
2018-Apr-25 06:31N 43°48' E 023°03'1 2.5
2018-Apr-25 06:00N 43°48' E 023°05'1 2.7
2018-Apr-25 05:30N 43°48' E 023°07'1 2.6
2018-Apr-25 04:58N 43°48' E 023°09'1 2.2
2018-Apr-25 04:30N 43°49' E 023°10'1 2.5
2018-Apr-25 04:00N 43°50' E 023°12'1 2.7
2018-Apr-25 03:30N 43°50' E 023°13'1 2.6
2018-Apr-25 03:00N 43°50' E 023°15'1 2.6
2018-Apr-25 02:30N 43°51' E 023°17'1 2.7
2018-Apr-25 02:00N 43°51' E 023°19'1 2.7
2018-Apr-25 01:28N 43°51' E 023°21'1 2.8
2018-Apr-25 00:56N 43°51' E 023°23'1 2.7
2018-Apr-25 00:30N 43°51' E 023°24'1 2.7
2018-Apr-25 00:00N 43°51' E 023°26'1 2.7
2018-Apr-24 23:30N 43°51' E 023°28'2 2.7
2018-Apr-24 22:50N 43°50' E 023°30'1 2.6
2018-Apr-24 22:28N 43°49' E 023°31'1 2.7
2018-Apr-24 21:59N 43°48' E 023°33'1 2.6
2018-Apr-24 21:30N 43°48' E 023°34'  
Track history (hours):
 
Tides and Currents Weather Stations Pressure Air Temp Water Temp Dewpoint Dewpoint Depression Visibility Wind Speed Wind Dir Waves Ship Positions

Kazan <<

Last reported at 2018-May-02 06:58 UTC. Time now 2018-Jul-18 14:42 UTC.
Position N 44°41' E 027°55'.
Warning: this ship's position is months out of date.

Length 210 m; draft 0.2 m.

Type: Ship. MMSI: 272041800.

Date/timePositionNaut miles runAvg speedWind from/ knotsBaromVisibWave heightAir tempDewpointWater temp
2018-May-02 06:58N 44°41' E 027°55'2 5.3
2018-May-02 06:30N 44°40' E 027°59'14 1.2
2018-May-01 18:53N 44°28' E 028°06'39 3.6
2018-May-01 07:54N 44°08' E 027°18'93 3.4
2018-Apr-30 04:36N 43°41' E 025°15'2 5.8
2018-Apr-30 04:14N 43°42' E 025°12'2 5.8
2018-Apr-30 03:51N 43°42' E 025°09'2 5.4
2018-Apr-30 03:30N 43°41' E 025°07'62 2.8
2018-Apr-29 04:50N 43°48' E 023°41'3 6.3
2018-Apr-29 04:17N 43°48' E 023°37'2 6.8
2018-Apr-29 03:59N 43°48' E 023°34'3 6.3
2018-Apr-29 03:30N 43°50' E 023°30'2 0.2
2018-Apr-28 17:23N 43°51' E 023°28'2 5.9
2018-Apr-28 16:59N 43°51' E 023°25'3 6.1
2018-Apr-28 16:30N 43°51' E 023°21'3 6.0
2018-Apr-28 16:00N 43°51' E 023°17'3 5.9
2018-Apr-28 15:30N 43°50' E 023°13'3 6.3
2018-Apr-28 14:57N 43°48' E 023°08'3 6.0
2018-Apr-28 14:28N 43°48' E 023°04'3 6.2
2018-Apr-28 13:58N 43°48' E 023°00'3 6.0
2018-Apr-28 13:31N 43°49' E 022°56'3 6.3
2018-Apr-28 13:01N 43°50' E 022°52'3 5.9
2018-Apr-28 12:30N 43°53' E 022°50'3 6.1
2018-Apr-28 12:00N 43°56' E 022°52'3 6.3
2018-Apr-28 11:29N 43°59' E 022°53'3 6.2
2018-Apr-28 11:00N 44°00' E 022°56'3 6.2
2018-Apr-28 10:30N 44°01' E 023°01'3 6.3
2018-Apr-28 10:00N 44°04' E 023°03'3 5.6
2018-Apr-28 09:30N 44°06' E 023°00'3 6.2
2018-Apr-28 09:00N 44°06' E 022°56'3 6.0
2018-Apr-28 08:30N 44°08' E 022°53'3 6.2
2018-Apr-28 08:00N 44°09' E 022°49'3 6.0
2018-Apr-28 07:30N 44°11' E 022°46'3 6.2
2018-Apr-28 07:00N 44°12' E 022°42'3 5.5
2018-Apr-28 06:30N 44°15' E 022°41'2 4.1
2018-Apr-28 06:00N 44°17' E 022°41'0 0.1
2018-Apr-28 05:30N 44°17' E 022°41'2 3.7
2018-Apr-28 05:00N 44°17' E 022°38'3 6.2
2018-Apr-28 04:30N 44°18' E 022°34'0 0.4
2018-Apr-28 04:00N 44°18' E 022°34'0 1.0
2018-Apr-28 03:30N 44°19' E 022°33'2 3.8
2018-Apr-28 03:01N 44°20' E 022°32'0 0.0
2018-Apr-28 02:30N 44°20' E 022°32'0 0.0
2018-Apr-28 02:00N 44°20' E 022°32'0 0.0
2018-Apr-28 01:30N 44°20' E 022°32'0 0.0
2018-Apr-28 01:00N 44°20' E 022°32'0 0.0
2018-Apr-28 00:31N 44°20' E 022°32'0 0.0
2018-Apr-28 00:00N 44°20' E 022°32'0 0.0
2018-Apr-27 23:30N 44°20' E 022°32'0 0.0
2018-Apr-27 23:00N 44°20' E 022°32'0 0.0
2018-Apr-27 22:30N 44°20' E 022°32'0 0.0
2018-Apr-27 22:00N 44°20' E 022°32'2 3.6
2018-Apr-27 21:30N 44°22' E 022°31'3 6.6
2018-Apr-27 21:00N 44°25' E 022°30'3 6.3
2018-Apr-27 20:31N 44°28' E 022°28'2 4.5
2018-Apr-27 20:01N 44°28' E 022°30'3 5.6
2018-Apr-27 19:30N 44°30' E 022°34'3 6.3
2018-Apr-27 19:01N 44°33' E 022°35'3 6.6
2018-Apr-27 18:31N 44°32' E 022°40'3 6.7
2018-Apr-27 18:00N 44°32' E 022°44'3 6.0
2018-Apr-27 17:30N 44°35' E 022°44'3 6.8
2018-Apr-27 17:01N 44°37' E 022°41'1 2.7
2018-Apr-27 16:31N 44°37' E 022°39'0 0.0
2018-Apr-27 15:59N 44°37' E 022°39'0 0.0
2018-Apr-27 15:31N 44°37' E 022°39'0 0.0
2018-Apr-27 15:01N 44°37' E 022°39'0 0.0
2018-Apr-27 14:31N 44°37' E 022°39'0 0.0
2018-Apr-27 13:58N 44°37' E 022°39'0 0.0
2018-Apr-27 13:31N 44°37' E 022°39'0 0.0
2018-Apr-27 13:01N 44°37' E 022°39'0 0.0
2018-Apr-27 12:30N 44°37' E 022°39'0 0.0
2018-Apr-27 12:00N 44°37' E 022°39'0 0.0
2018-Apr-27 11:30N 44°37' E 022°39'0 0.0
2018-Apr-27 11:01N 44°37' E 022°39'0 0.0
2018-Apr-27 10:31N 44°37' E 022°39'0 0.0
2018-Apr-27 10:01N 44°37' E 022°39'0 0.0
2018-Apr-27 09:31N 44°37' E 022°39'0 0.0
2018-Apr-27 09:01N 44°37' E 022°39'0 0.0
2018-Apr-27 08:30N 44°37' E 022°39'0 0.0
2018-Apr-27 08:01N 44°37' E 022°39'0 0.0
2018-Apr-27 07:31N 44°37' E 022°39'0 0.0
2018-Apr-27 07:01N 44°37' E 022°39'0 0.0
2018-Apr-27 06:31N 44°37' E 022°39'0 0.0
2018-Apr-27 06:01N 44°37' E 022°39'0 0.0
2018-Apr-27 05:31N 44°37' E 022°39'0 0.0
2018-Apr-27 05:00N 44°37' E 022°39'0 0.0
2018-Apr-27 04:30N 44°37' E 022°39'0 0.0
2018-Apr-27 04:01N 44°37' E 022°39'0 0.0
2018-Apr-27 03:31N 44°37' E 022°39'0 0.0
2018-Apr-27 03:01N 44°37' E 022°39'0 0.0
2018-Apr-27 02:30N 44°37' E 022°39'0 0.1
2018-Apr-27 02:01N 44°37' E 022°39'0 0.1
2018-Apr-27 01:31N 44°37' E 022°39'0 0.0
2018-Apr-27 01:01N 44°37' E 022°39'0 0.0
2018-Apr-27 00:31N 44°37' E 022°39'0 0.0
2018-Apr-27 00:01N 44°37' E 022°39'0 0.0
2018-Apr-26 23:31N 44°37' E 022°39'0 0.0
2018-Apr-26 23:01N 44°37' E 022°39'0 0.0
2018-Apr-26 22:31N 44°37' E 022°39'0 0.0
2018-Apr-26 22:01N 44°37' E 022°39'0 0.0
2018-Apr-26 21:30N 44°37' E 022°39'0 0.0
2018-Apr-26 21:01N 44°37' E 022°39'0 0.0
2018-Apr-26 20:31N 44°37' E 022°39'0 0.0
2018-Apr-26 20:01N 44°37' E 022°39'0 0.0
2018-Apr-26 19:31N 44°37' E 022°39'0 0.1
2018-Apr-26 19:01N 44°37' E 022°39'1 1.3
2018-Apr-26 18:31N 44°37' E 022°40'1 2.0
2018-Apr-26 18:01N 44°37' E 022°41'1 2.1
2018-Apr-26 17:30N 44°36' E 022°42'1 2.9
2018-Apr-26 17:01N 44°35' E 022°43'1 2.7
2018-Apr-26 16:30N 44°34' E 022°45'1 2.8
2018-Apr-26 16:00N 44°33' E 022°46'1 2.1
2018-Apr-26 15:30N 44°32' E 022°45'1 1.8
2018-Apr-26 15:00N 44°32' E 022°44'1 2.1
2018-Apr-26 14:30N 44°31' E 022°43'1 2.5
2018-Apr-26 14:00N 44°31' E 022°41'1 3.0
2018-Apr-26 13:30N 44°32' E 022°39'1 3.0
2018-Apr-26 13:00N 44°33' E 022°38'1 2.7
2018-Apr-26 12:30N 44°33' E 022°36'1 2.7
2018-Apr-26 12:00N 44°32' E 022°34'1 3.0
2018-Apr-26 11:30N 44°31' E 022°34'2 3.3
2018-Apr-26 11:00N 44°29' E 022°33'2 3.2
2018-Apr-26 10:30N 44°28' E 022°31'2 3.0
2018-Apr-26 10:00N 44°29' E 022°29'1 2.6
2018-Apr-26 09:30N 44°28' E 022°27'1 2.8
2018-Apr-26 09:00N 44°27' E 022°28'2 3.5
2018-Apr-26 08:30N 44°26' E 022°29'2 3.2
2018-Apr-26 08:00N 44°24' E 022°30'2 3.1
2018-Apr-26 07:30N 44°23' E 022°30'2 3.3
2018-Apr-26 07:00N 44°21' E 022°31'2 3.1
2018-Apr-26 06:30N 44°20' E 022°32'1 2.8
2018-Apr-26 06:00N 44°19' E 022°34'0 0.1
2018-Apr-26 05:30N 44°19' E 022°34'1 1.6
2018-Apr-26 05:00N 44°19' E 022°35'1 2.8
2018-Apr-26 04:30N 44°18' E 022°36'1 2.5
2018-Apr-26 04:00N 44°18' E 022°38'1 2.7
2018-Apr-26 03:30N 44°17' E 022°40'1 2.5
2018-Apr-26 03:00N 44°16' E 022°41'1 2.4
2018-Apr-26 02:30N 44°15' E 022°41'1 2.2
2018-Apr-26 02:00N 44°14' E 022°41'1 1.8
2018-Apr-26 01:30N 44°13' E 022°41'1 1.5
2018-Apr-26 01:01N 44°12' E 022°41'1 2.2
2018-Apr-26 00:30N 44°12' E 022°43'1 2.1
2018-Apr-26 00:00N 44°12' E 022°44'1 2.1
2018-Apr-25 23:30N 44°11' E 022°45'1 2.2
2018-Apr-25 23:00N 44°11' E 022°47'1 2.7
2018-Apr-25 22:30N 44°10' E 022°48'1 2.8
2018-Apr-25 22:01N 44°09' E 022°50'1 2.9
2018-Apr-25 21:31N 44°08' E 022°51'1 2.4
2018-Apr-25 21:00N 44°08' E 022°53'1 2.9
2018-Apr-25 20:30N 44°07' E 022°54'1 2.6
2018-Apr-25 20:00N 44°06' E 022°56'1 2.5
2018-Apr-25 19:31N 44°06' E 022°58'1 2.7
2018-Apr-25 19:00N 44°06' E 022°59'1 2.9
2018-Apr-25 18:30N 44°05' E 023°01'1 2.8
2018-Apr-25 18:00N 44°04' E 023°03'1 2.5
2018-Apr-25 17:31N 44°03' E 023°03'1 2.4
2018-Apr-25 17:00N 44°02' E 023°02'1 2.6
2018-Apr-25 16:30N 44°01' E 023°01'1 1.7
2018-Apr-25 16:01N 44°01' E 022°60'0 0.2
2018-Apr-25 15:30N 44°01' E 022°60'1 2.8
2018-Apr-25 15:00N 44°00' E 022°58'1 2.6
2018-Apr-25 14:30N 44°00' E 022°56'1 1.3
2018-Apr-25 14:00N 43°60' E 022°55'0 0.8
2018-Apr-25 13:30N 43°60' E 022°54'1 2.7
2018-Apr-25 13:00N 43°59' E 022°53'1 2.3
2018-Apr-25 12:31N 43°58' E 022°52'1 2.8
2018-Apr-25 12:00N 43°57' E 022°52'2 3.1
2018-Apr-25 11:30N 43°55' E 022°51'1 2.7
2018-Apr-25 11:00N 43°54' E 022°51'1 2.7
2018-Apr-25 10:30N 43°53' E 022°50'1 2.8
2018-Apr-25 10:01N 43°51' E 022°51'1 2.6
2018-Apr-25 09:30N 43°50' E 022°52'1 2.6
2018-Apr-25 08:57N 43°50' E 022°54'1 2.7
2018-Apr-25 08:30N 43°50' E 022°56'1 2.9
2018-Apr-25 08:00N 43°49' E 022°58'1 2.9
2018-Apr-25 07:29N 43°49' E 022°59'1 3.0
2018-Apr-25 07:00N 43°48' E 023°01'1 2.6
2018-Apr-25 06:31N 43°48' E 023°03'1 2.5
2018-Apr-25 06:00N 43°48' E 023°05'1 2.7
2018-Apr-25 05:30N 43°48' E 023°07'1 2.6
2018-Apr-25 04:58N 43°48' E 023°09'1 2.2
2018-Apr-25 04:30N 43°49' E 023°10'1 2.5
2018-Apr-25 04:00N 43°50' E 023°12'1 2.7
2018-Apr-25 03:30N 43°50' E 023°13'1 2.6
2018-Apr-25 03:00N 43°50' E 023°15'1 2.6
2018-Apr-25 02:30N 43°51' E 023°17'1 2.7
2018-Apr-25 02:00N 43°51' E 023°19'1 2.7
2018-Apr-25 01:28N 43°51' E 023°21'1 2.8
2018-Apr-25 00:56N 43°51' E 023°23'1 2.7
2018-Apr-25 00:30N 43°51' E 023°24'1 2.7
2018-Apr-25 00:00N 43°51' E 023°26'1 2.7
2018-Apr-24 23:30N 43°51' E 023°28'2 2.7
2018-Apr-24 22:50N 43°50' E 023°30'1 2.6
2018-Apr-24 22:28N 43°49' E 023°31'1 2.7
2018-Apr-24 21:59N 43°48' E 023°33'1 2.6
2018-Apr-24 21:30N 43°48' E 023°34'  

Dump ship's entire track history